createdAt,value
2023-05-11T00:00:55.959Z,26.20
2023-05-11T00:01:56.042Z,26.20
2023-05-11T00:02:56.182Z,26.20
2023-05-11T00:03:56.307Z,26.20
2023-05-11T00:04:56.157Z,26.20
2023-05-11T00:05:56.189Z,26.20
2023-05-11T00:06:56.236Z,26.20
2023-05-11T00:07:56.281Z,26.20
2023-05-11T00:08:56.344Z,26.19
2023-05-11T00:09:56.400Z,26.19
2023-05-11T00:10:56.428Z,26.20
2023-05-11T00:11:56.446Z,26.19
2023-05-11T00:12:56.484Z,26.20
2023-05-11T00:13:56.536Z,26.19
2023-05-11T00:14:56.571Z,26.19
2023-05-11T00:15:56.704Z,26.19
2023-05-11T00:16:56.628Z,26.18
2023-05-11T00:17:56.766Z,26.19
2023-05-11T00:18:56.748Z,26.19
2023-05-11T00:19:56.791Z,26.18
2023-05-11T00:20:56.822Z,26.19
2023-05-11T00:21:56.845Z,26.19
2023-05-11T00:22:56.873Z,26.19
2023-05-11T00:23:56.915Z,26.19
2023-05-11T00:24:56.946Z,26.18
2023-05-11T00:25:56.989Z,26.18
2023-05-11T00:26:57.041Z,26.18
2023-05-11T00:27:57.106Z,26.18
2023-05-11T00:28:57.090Z,26.18
2023-05-11T00:29:57.150Z,26.19
2023-05-11T00:30:57.187Z,26.18
2023-05-11T00:31:57.267Z,26.18
2023-05-11T00:32:57.290Z,26.18
2023-05-11T00:33:57.280Z,26.18
2023-05-11T00:34:57.311Z,26.19
2023-05-11T00:35:57.384Z,26.18
2023-05-11T00:36:57.423Z,26.18
2023-05-11T00:37:57.461Z,26.18
2023-05-11T00:38:57.491Z,26.17
2023-05-11T00:39:57.520Z,26.17
2023-05-11T00:40:57.574Z,26.18
2023-05-11T00:41:57.603Z,26.17
2023-05-11T00:42:57.662Z,26.17
2023-05-11T00:43:57.687Z,26.17
2023-05-11T00:44:57.710Z,26.17
2023-05-11T00:45:57.770Z,26.17
2023-05-11T00:46:57.843Z,26.18
2023-05-11T00:47:57.874Z,26.17
2023-05-11T00:48:57.896Z,26.17
2023-05-11T00:49:57.945Z,26.17
2023-05-11T00:50:57.973Z,26.17
2023-05-11T00:51:58.041Z,26.17
2023-05-11T00:52:58.064Z,26.17
2023-05-11T00:53:58.115Z,26.16
2023-05-11T00:54:58.146Z,26.17
2023-05-11T00:55:58.193Z,26.17
2023-05-11T00:56:58.233Z,26.17
2023-05-11T00:57:58.307Z,26.17
2023-05-11T00:58:58.347Z,26.17
2023-05-11T00:59:58.381Z,26.17
2023-05-11T01:00:58.432Z,26.17
2023-05-11T01:01:58.502Z,26.17
2023-05-11T01:02:58.510Z,26.17
2023-05-11T01:03:58.540Z,26.17
2023-05-11T01:04:58.593Z,26.16
2023-05-11T01:05:58.638Z,26.17
2023-05-11T01:06:58.660Z,26.17
2023-05-11T01:07:58.705Z,26.17
2023-05-11T01:08:58.759Z,26.16
2023-05-11T01:09:58.779Z,26.16
2023-05-11T01:10:58.846Z,26.16
2023-05-11T01:11:58.877Z,26.16
2023-05-11T01:12:58.894Z,26.15
2023-05-11T01:13:58.963Z,26.16
2023-05-11T01:14:59.036Z,26.16
2023-05-11T01:15:59.073Z,26.16
2023-05-11T01:16:59.171Z,26.16
2023-05-11T01:17:59.192Z,26.16
2023-05-11T01:18:59.299Z,26.16
2023-05-11T01:19:59.249Z,26.16
2023-05-11T01:20:59.292Z,26.16
2023-05-11T01:21:59.313Z,26.16
2023-05-11T01:22:59.379Z,26.16
2023-05-11T01:23:59.397Z,26.15
2023-05-11T01:24:59.445Z,26.16
2023-05-11T01:25:59.511Z,26.15
2023-05-11T01:26:59.561Z,26.15
2023-05-11T01:27:59.613Z,26.15
2023-05-11T01:28:59.666Z,26.15
2023-05-11T01:29:59.679Z,26.15
2023-05-11T01:30:59.740Z,26.15
2023-05-11T01:31:59.819Z,26.15
2023-05-11T01:32:59.939Z,26.15
2023-05-11T01:33:59.876Z,26.15
2023-05-11T01:34:59.933Z,26.14
2023-05-11T01:35:59.983Z,26.15
2023-05-11T01:37:00.002Z,26.14
2023-05-11T01:38:00.070Z,26.14
2023-05-11T01:39:00.115Z,26.14
2023-05-11T01:40:00.179Z,26.14
2023-05-11T01:41:00.184Z,26.14
2023-05-11T01:42:00.236Z,26.14
2023-05-11T01:43:00.325Z,26.14
2023-05-11T01:44:00.354Z,26.14
2023-05-11T01:45:00.397Z,26.15
2023-05-11T01:46:00.455Z,26.14
2023-05-11T01:47:00.484Z,26.14
2023-05-11T01:48:00.541Z,26.14
2023-05-11T01:49:00.585Z,26.14
2023-05-11T01:50:00.613Z,26.14
2023-05-11T01:51:00.650Z,26.14
2023-05-11T01:52:00.712Z,26.12
2023-05-11T01:53:00.762Z,26.13
2023-05-11T01:54:00.824Z,26.13
2023-05-11T01:55:00.880Z,26.13
2023-05-11T01:56:00.912Z,26.13
2023-05-11T01:57:00.964Z,26.13
2023-05-11T01:58:01.002Z,26.13
2023-05-11T01:59:01.057Z,26.13
2023-05-11T02:00:01.110Z,26.13
2023-05-11T02:01:01.136Z,26.12
2023-05-11T02:02:01.253Z,26.13
2023-05-11T02:03:01.338Z,26.12
2023-05-11T02:04:01.266Z,26.13
2023-05-11T02:05:01.304Z,26.12
2023-05-11T02:06:01.394Z,26.13
2023-05-11T02:07:01.422Z,26.13
2023-05-11T02:08:01.483Z,26.12
2023-05-11T02:09:01.537Z,26.13
2023-05-11T02:10:01.605Z,26.12
2023-05-11T02:11:01.592Z,26.13
2023-05-11T02:12:01.671Z,26.12
2023-05-11T02:13:01.704Z,26.12
2023-05-11T02:14:01.732Z,26.13
2023-05-11T02:15:01.763Z,26.12
2023-05-11T02:16:01.824Z,26.12
2023-05-11T02:17:01.845Z,26.13
2023-05-11T02:18:01.945Z,26.12
2023-05-11T02:19:02.059Z,26.12
2023-05-11T02:20:01.970Z,26.12
2023-05-11T02:21:02.023Z,26.12
2023-05-11T02:22:02.066Z,26.12
2023-05-11T02:23:02.125Z,26.11
2023-05-11T02:24:02.163Z,26.12
2023-05-11T02:25:02.250Z,26.11
2023-05-11T02:26:02.281Z,26.12
2023-05-11T02:27:02.349Z,26.11
2023-05-11T02:28:02.342Z,26.11
2023-05-11T02:29:02.396Z,26.11
2023-05-11T02:30:02.480Z,26.11
2023-05-11T02:31:02.546Z,26.11
2023-05-11T02:32:02.548Z,26.11
2023-05-11T02:33:02.698Z,26.11
2023-05-11T02:34:02.668Z,26.10
2023-05-11T02:35:02.727Z,26.11
2023-05-11T02:36:02.771Z,26.11
2023-05-11T02:37:02.816Z,26.10
2023-05-11T02:38:02.842Z,26.11
2023-05-11T02:39:02.904Z,26.11
2023-05-11T02:40:02.996Z,26.11
2023-05-11T02:41:02.992Z,26.10
2023-05-11T02:42:03.048Z,26.10
2023-05-11T02:43:03.086Z,26.10
2023-05-11T02:44:03.137Z,26.10
2023-05-11T02:45:03.246Z,26.09
2023-05-11T02:46:03.369Z,26.09
2023-05-11T02:47:03.353Z,26.10
2023-05-11T02:48:03.547Z,26.10
2023-05-11T02:49:03.401Z,26.09
2023-05-11T02:50:03.438Z,26.10
2023-05-11T02:51:03.494Z,26.10
2023-05-11T02:52:03.577Z,26.10
2023-05-11T02:53:03.631Z,26.10
2023-05-11T02:54:03.651Z,26.09
2023-05-11T02:55:03.729Z,26.09
2023-05-11T02:56:03.792Z,26.09
2023-05-11T02:57:03.836Z,26.10
2023-05-11T02:58:03.880Z,26.09
2023-05-11T02:59:03.914Z,26.10
2023-05-11T03:00:04.001Z,26.09
2023-05-11T03:01:04.046Z,26.09
2023-05-11T03:02:04.218Z,26.09
2023-05-11T03:03:04.207Z,26.09
2023-05-11T03:04:04.195Z,26.09
2023-05-11T03:05:04.234Z,26.09
2023-05-11T03:06:04.270Z,26.09
2023-05-11T03:07:04.329Z,26.09
2023-05-11T03:08:04.385Z,26.09
2023-05-11T03:09:04.466Z,26.08
2023-05-11T03:10:04.572Z,26.09
2023-05-11T03:11:04.565Z,26.08
2023-05-11T03:12:04.632Z,26.09
2023-05-11T03:13:04.703Z,26.08
2023-05-11T03:14:04.721Z,26.08
2023-05-11T03:15:04.788Z,26.08
2023-05-11T03:16:05.446Z,26.08
2023-05-11T03:17:04.923Z,26.08
2023-05-11T03:18:04.964Z,26.07
2023-05-11T03:19:05.029Z,26.07
2023-05-11T03:20:05.019Z,26.08
2023-05-11T03:21:05.093Z,26.07
2023-05-11T03:22:05.136Z,26.07
2023-05-11T03:23:05.171Z,26.07
2023-05-11T03:24:05.253Z,26.08
2023-05-11T03:25:05.313Z,26.07
2023-05-11T03:26:05.342Z,26.07
2023-05-11T03:27:05.383Z,26.07
2023-05-11T03:28:05.458Z,26.07
2023-05-11T03:29:05.483Z,26.07
2023-05-11T03:30:05.529Z,26.07
2023-05-11T03:31:05.684Z,26.07
2023-05-11T03:32:05.705Z,26.07
2023-05-11T03:33:05.807Z,26.07
2023-05-11T03:34:05.771Z,26.06
2023-05-11T03:35:05.817Z,26.06
2023-05-11T03:36:05.877Z,26.06
2023-05-11T03:37:05.988Z,26.06
2023-05-11T03:38:05.954Z,26.06
2023-05-11T03:39:05.998Z,26.06
2023-05-11T03:40:06.083Z,26.06
2023-05-11T03:41:06.130Z,26.06
2023-05-11T03:42:06.148Z,26.06
2023-05-11T03:43:06.225Z,26.06
2023-05-11T03:44:06.278Z,26.06
2023-05-11T03:45:06.348Z,26.06
2023-05-11T03:46:06.406Z,26.06
2023-05-11T03:47:06.451Z,26.05
2023-05-11T03:48:06.478Z,26.05
2023-05-11T03:49:06.537Z,26.05
2023-05-11T03:50:06.629Z,26.05
2023-05-11T03:51:06.664Z,26.05
2023-05-11T03:52:06.701Z,26.05
2023-05-11T03:53:06.804Z,26.05
2023-05-11T03:54:06.815Z,26.05
2023-05-11T03:55:06.888Z,26.05
2023-05-11T03:56:06.930Z,26.05
2023-05-11T03:57:07.003Z,26.05
2023-05-11T03:58:07.049Z,26.04
2023-05-11T03:59:07.122Z,26.04
2023-05-11T04:00:07.156Z,26.05
2023-05-11T04:01:07.195Z,26.05
2023-05-11T04:02:07.348Z,26.05
2023-05-11T04:03:07.402Z,26.05
2023-05-11T04:04:07.583Z,26.04
2023-05-11T04:05:07.447Z,26.04
2023-05-11T04:06:07.543Z,26.04
2023-05-11T04:07:07.543Z,26.03
2023-05-11T04:08:07.615Z,26.04
2023-05-11T04:09:07.674Z,26.04
2023-05-11T04:10:07.718Z,26.04
2023-05-11T04:11:07.789Z,26.04
2023-05-11T04:12:07.848Z,26.03
2023-05-11T04:13:07.904Z,26.04
2023-05-11T04:14:07.935Z,26.03
2023-05-11T04:15:08.038Z,26.03
2023-05-11T04:16:08.132Z,26.03
2023-05-11T04:17:08.100Z,26.03
2023-05-11T04:18:08.216Z,26.03
2023-05-11T04:19:08.251Z,26.03
2023-05-11T04:20:08.332Z,26.03
2023-05-11T04:21:08.344Z,26.02
2023-05-11T04:22:08.397Z,26.02
2023-05-11T04:23:10.336Z,26.02
2023-05-11T04:24:08.519Z,26.03
2023-05-11T04:25:08.583Z,26.01
2023-05-11T04:26:08.620Z,26.02
2023-05-11T04:27:08.686Z,26.02
2023-05-11T04:28:08.741Z,26.02
2023-05-11T04:29:08.802Z,26.02
2023-05-11T04:30:08.862Z,26.03
2023-05-11T04:31:08.941Z,26.03
2023-05-11T04:32:08.978Z,26.03
2023-05-11T04:33:09.094Z,26.03
2023-05-11T04:34:09.088Z,26.03
2023-05-11T04:35:09.186Z,26.04
2023-05-11T04:36:09.196Z,26.04
2023-05-11T04:37:09.259Z,26.04
2023-05-11T04:38:09.320Z,26.05
2023-05-11T04:39:09.370Z,26.05
2023-05-11T04:40:09.447Z,26.06
2023-05-11T04:41:09.517Z,26.06
2023-05-11T04:42:09.534Z,26.06
2023-05-11T04:43:09.592Z,26.06
2023-05-11T04:44:09.652Z,26.07
2023-05-11T04:45:09.693Z,26.07
2023-05-11T04:46:09.756Z,26.08
2023-05-11T04:47:09.839Z,26.08
2023-05-11T04:48:09.869Z,26.09
2023-05-11T04:49:09.925Z,26.09
2023-05-11T04:50:09.935Z,26.10
2023-05-11T04:51:10.026Z,26.11
2023-05-11T04:52:10.047Z,26.11
2023-05-11T04:53:10.067Z,26.12
2023-05-11T04:54:10.142Z,26.13
2023-05-11T04:55:10.186Z,26.13
2023-05-11T04:56:10.214Z,26.14
2023-05-11T04:57:10.292Z,26.15
2023-05-11T04:58:10.346Z,26.16
2023-05-11T04:59:10.325Z,26.15
2023-05-11T05:00:10.436Z,26.17
2023-05-11T05:01:17.558Z,26.17
2023-05-11T05:02:10.438Z,26.17
2023-05-11T05:03:10.427Z,26.19
2023-05-11T05:04:10.563Z,26.19
2023-05-11T05:05:10.450Z,26.19
2023-05-11T05:06:10.394Z,26.20
2023-05-11T05:07:10.417Z,26.20
2023-05-11T05:08:10.387Z,26.21
2023-05-11T05:09:10.412Z,26.21
2023-05-11T05:10:10.360Z,26.21
2023-05-11T05:11:10.363Z,26.22
2023-05-11T05:12:10.393Z,26.22
2023-05-11T05:13:10.396Z,26.23
2023-05-11T05:14:10.375Z,26.23
2023-05-11T05:15:10.368Z,26.24
2023-05-11T05:16:10.466Z,26.24
2023-05-11T05:17:10.503Z,26.24
2023-05-11T05:18:10.395Z,26.25
2023-05-11T05:19:10.337Z,26.25
2023-05-11T05:20:10.387Z,26.26
2023-05-11T05:21:10.324Z,26.26
2023-05-11T05:22:10.338Z,26.27
2023-05-11T05:23:10.312Z,26.27
2023-05-11T05:24:10.339Z,26.26
2023-05-11T05:25:10.316Z,26.27
2023-05-11T05:26:10.277Z,26.27
2023-05-11T05:27:10.292Z,26.29
2023-05-11T05:28:10.279Z,26.29
2023-05-11T05:29:10.308Z,26.30
2023-05-11T05:30:10.269Z,26.30
2023-05-11T05:31:10.291Z,26.30
2023-05-11T05:32:10.240Z,26.30
2023-05-11T05:33:10.284Z,26.29
2023-05-11T05:34:10.223Z,26.25
2023-05-11T05:35:10.302Z,26.10
2023-05-11T05:36:10.281Z,25.91
2023-05-11T05:37:10.318Z,25.74
2023-05-11T05:38:10.325Z,25.64
2023-05-11T05:39:10.338Z,25.52
2023-05-11T05:40:10.359Z,25.42
2023-05-11T05:41:10.553Z,25.32
2023-05-11T05:42:10.516Z,25.25
2023-05-11T05:43:10.536Z,25.19
2023-05-11T05:44:10.635Z,25.16
2023-05-11T05:45:12.495Z,25.09
2023-05-11T05:46:18.108Z,25.04
2023-05-11T05:47:10.598Z,24.99
2023-05-11T05:48:10.612Z,24.96
2023-05-11T05:49:10.573Z,24.95
2023-05-11T05:50:10.560Z,24.95
2023-05-11T05:51:10.567Z,24.95
2023-05-11T05:52:10.566Z,24.96
2023-05-11T05:53:10.585Z,24.96
2023-05-11T05:54:10.539Z,24.95
2023-05-11T05:55:10.534Z,24.97
2023-05-11T05:56:10.544Z,24.96
2023-05-11T05:57:10.510Z,24.93
2023-05-11T05:58:10.510Z,24.93
2023-05-11T05:59:10.518Z,24.92
2023-05-11T06:00:10.484Z,24.92
2023-05-11T06:01:10.462Z,24.94
2023-05-11T06:02:10.548Z,24.98
2023-05-11T06:03:10.564Z,25.01
2023-05-11T06:04:10.678Z,25.04
2023-05-11T06:05:10.500Z,25.06
2023-05-11T06:06:10.462Z,25.08
2023-05-11T06:07:10.437Z,25.09
2023-05-11T06:08:11.356Z,25.09
2023-05-11T06:09:11.487Z,25.08
2023-05-11T06:10:10.478Z,25.07
2023-05-11T06:11:10.411Z,25.01
2023-05-11T06:12:10.400Z,24.96
2023-05-11T06:13:10.393Z,24.92
2023-05-11T06:14:10.380Z,24.90
2023-05-11T06:15:10.384Z,24.84
2023-05-11T06:16:10.418Z,24.81
2023-05-11T06:17:10.394Z,24.76
2023-05-11T06:18:10.383Z,24.73
2023-05-11T06:19:10.410Z,24.70
2023-05-11T06:20:10.367Z,24.65
2023-05-11T06:21:10.355Z,24.64
2023-05-11T06:22:10.359Z,24.62
2023-05-11T06:23:10.348Z,24.59
2023-05-11T06:24:10.321Z,24.59
2023-05-11T06:25:10.301Z,24.61
2023-05-11T06:26:10.337Z,24.62
2023-05-11T06:27:10.365Z,24.60
2023-05-11T06:28:10.345Z,24.59
2023-05-11T06:29:10.384Z,24.59
2023-05-11T06:30:10.437Z,24.61
2023-05-11T06:31:10.454Z,24.60
2023-05-11T06:32:10.498Z,24.57
2023-05-11T06:33:10.482Z,24.58
2023-05-11T06:34:10.558Z,24.61
2023-05-11T06:35:10.553Z,24.63
2023-05-11T06:36:10.588Z,24.66
2023-05-11T06:37:10.622Z,24.64
2023-05-11T06:38:10.614Z,24.60
2023-05-11T06:39:10.663Z,24.56
2023-05-11T06:40:10.667Z,24.53
2023-05-11T06:41:10.741Z,24.47
2023-05-11T06:42:10.766Z,24.44
2023-05-11T06:43:10.737Z,24.45
2023-05-11T06:44:10.814Z,24.49
2023-05-11T06:45:10.835Z,24.50
2023-05-11T06:46:10.923Z,24.54
2023-05-11T06:47:11.104Z,24.57
2023-05-11T06:48:10.942Z,24.57
2023-05-11T06:49:10.871Z,24.56
2023-05-11T06:51:23.863Z,24.45
2023-05-11T06:52:23.887Z,24.45
2023-05-11T06:53:23.927Z,24.42
2023-05-11T06:54:23.948Z,24.42
2023-05-11T06:55:23.936Z,24.42
2023-05-11T06:56:23.985Z,24.43
2023-05-11T06:57:23.999Z,24.45
2023-05-11T06:58:24.032Z,24.47
2023-05-11T06:59:24.004Z,24.50
2023-05-11T07:00:24.041Z,24.52
2023-05-11T07:01:24.096Z,24.55
2023-05-11T07:02:24.582Z,24.55
2023-05-11T07:03:24.059Z,24.54
2023-05-11T07:04:24.106Z,24.54
2023-05-11T07:05:24.089Z,24.50
2023-05-11T07:06:24.088Z,24.48
2023-05-11T07:07:24.432Z,24.45
2023-05-11T07:08:24.114Z,24.42
2023-05-11T07:09:24.145Z,24.39
2023-05-11T07:10:24.172Z,24.40
2023-05-11T07:11:24.170Z,24.39
2023-05-11T07:12:24.164Z,24.39
2023-05-11T07:13:24.200Z,24.44
2023-05-11T07:14:24.204Z,24.48
2023-05-11T07:15:24.221Z,24.52
2023-05-11T07:16:24.264Z,24.53
2023-05-11T07:17:24.232Z,24.54
2023-05-11T07:18:24.259Z,24.55
2023-05-11T07:19:24.250Z,24.53
2023-05-11T07:20:24.209Z,24.48
2023-05-11T07:21:24.222Z,24.47
2023-05-11T07:22:24.210Z,24.48
2023-05-11T07:23:24.224Z,24.49
2023-05-11T07:24:24.280Z,24.50
2023-05-11T07:25:24.264Z,24.49
2023-05-11T07:26:24.208Z,24.49
2023-05-11T07:27:24.228Z,24.47
2023-05-11T07:28:24.450Z,24.44
2023-05-11T07:29:24.250Z,24.45
2023-05-11T07:30:24.650Z,24.45
2023-05-11T07:31:24.282Z,24.46
2023-05-11T07:32:24.278Z,24.52
2023-05-11T07:33:24.251Z,24.57
2023-05-11T07:34:24.204Z,24.59
2023-05-11T07:35:24.465Z,24.63
2023-05-11T07:36:24.251Z,24.62
2023-05-11T07:37:24.246Z,24.65
2023-05-11T07:38:24.231Z,24.68
2023-05-11T07:39:24.327Z,24.73
2023-05-11T07:40:24.211Z,24.76
2023-05-11T07:41:24.211Z,24.78
2023-05-11T07:42:24.225Z,24.76
2023-05-11T07:43:24.435Z,24.75
2023-05-11T07:44:24.237Z,24.76
2023-05-11T07:45:24.267Z,24.77
2023-05-11T07:46:24.284Z,24.78
2023-05-11T07:47:24.255Z,24.82
2023-05-11T07:48:24.250Z,24.87
2023-05-11T07:49:31.379Z,24.92
2023-05-11T07:50:25.485Z,24.98
2023-05-11T07:51:24.289Z,25.02
2023-05-11T07:52:24.234Z,25.06
2023-05-11T07:53:24.254Z,25.09
2023-05-11T07:54:24.199Z,25.11
2023-05-11T07:55:24.217Z,25.13
2023-05-11T07:56:24.189Z,25.14
2023-05-11T07:57:24.181Z,25.17
2023-05-11T07:58:24.232Z,25.19
2023-05-11T07:59:24.244Z,25.19
2023-05-11T08:00:24.367Z,25.18
2023-05-11T08:01:24.358Z,25.19
2023-05-11T08:02:24.559Z,25.20
2023-05-11T08:03:24.523Z,25.21
2023-05-11T08:04:24.595Z,25.23
2023-05-11T08:05:24.628Z,25.24
2023-05-11T08:06:24.712Z,25.26
2023-05-11T08:07:24.669Z,25.26
2023-05-11T08:08:24.718Z,25.27
2023-05-11T08:09:24.777Z,25.30
2023-05-11T08:10:24.825Z,25.31
2023-05-11T08:11:24.954Z,25.33
2023-05-11T08:12:24.955Z,25.33
2023-05-11T08:14:24.997Z,25.38
2023-05-11T08:15:25.066Z,25.41
2023-05-11T08:16:25.201Z,25.45
2023-05-11T08:17:25.157Z,25.50
2023-05-11T08:18:25.206Z,25.54
2023-05-11T08:19:25.134Z,25.57
2023-05-11T08:20:25.165Z,25.61
2023-05-11T08:21:25.168Z,25.64
2023-05-11T08:22:25.186Z,25.68
2023-05-11T08:23:25.187Z,25.71
2023-05-11T08:24:25.227Z,25.75
2023-05-11T08:25:25.200Z,25.78
2023-05-11T08:26:25.208Z,25.82
2023-05-11T08:27:25.208Z,25.85
2023-05-11T08:28:25.230Z,25.88
2023-05-11T08:29:25.272Z,25.91
2023-05-11T08:30:25.267Z,25.94
2023-05-11T08:31:25.387Z,25.94
2023-05-11T08:32:25.472Z,25.94
2023-05-11T08:33:37.743Z,25.94
2023-05-11T08:34:26.557Z,25.92
2023-05-11T08:35:25.471Z,25.90
2023-05-11T08:36:25.440Z,25.89
2023-05-11T08:37:25.415Z,25.87
2023-05-11T08:38:25.433Z,25.84
2023-05-11T08:39:45.361Z,25.82
2023-05-11T08:40:26.419Z,25.79
2023-05-11T08:41:25.417Z,25.76
2023-05-11T08:42:25.374Z,25.75
2023-05-11T08:43:25.464Z,25.73
2023-05-11T08:44:25.373Z,25.71
2023-05-11T08:45:25.456Z,25.69
2023-05-11T08:46:25.542Z,25.67
2023-05-11T08:47:25.353Z,25.65
2023-05-11T08:48:25.358Z,25.63
2023-05-11T08:49:25.359Z,25.62
2023-05-11T08:50:25.343Z,25.60
2023-05-11T08:51:25.353Z,25.60
2023-05-11T08:52:25.304Z,25.59
2023-05-11T08:53:25.319Z,25.59
2023-05-11T08:54:25.316Z,25.58
2023-05-11T08:55:25.298Z,25.51
2023-05-11T08:56:25.295Z,25.44
2023-05-11T08:57:25.288Z,25.38
2023-05-11T08:58:25.262Z,25.29
2023-05-11T08:59:25.273Z,25.21
2023-05-11T09:00:25.288Z,25.16
2023-05-11T09:01:25.398Z,25.11
2023-05-11T09:02:25.372Z,25.01
2023-05-11T09:03:25.304Z,24.98
2023-05-11T09:04:25.276Z,24.96
2023-05-11T09:05:25.316Z,24.90
2023-05-11T09:06:25.398Z,24.85
2023-05-11T09:07:25.331Z,24.83
2023-05-11T09:08:25.372Z,24.81
2023-05-11T09:09:25.364Z,24.81
2023-05-11T09:10:25.470Z,24.82
2023-05-11T09:11:25.404Z,24.80
2023-05-11T09:12:25.407Z,24.79
2023-05-11T09:13:25.449Z,24.77
2023-05-11T09:14:27.874Z,24.77
2023-05-11T09:15:25.491Z,24.80
2023-05-11T09:16:36.912Z,24.82
2023-05-11T09:17:26.522Z,24.85
2023-05-11T09:18:25.531Z,24.88
2023-05-11T09:19:25.462Z,24.92
2023-05-11T09:20:25.483Z,24.94
2023-05-11T09:21:25.545Z,24.93
2023-05-11T09:22:26.115Z,24.94
2023-05-11T09:23:25.505Z,24.90
2023-05-11T09:24:25.463Z,24.90
2023-05-11T09:25:25.520Z,24.91
2023-05-11T09:26:25.437Z,24.94
2023-05-11T09:27:25.426Z,24.94
2023-05-11T09:28:25.996Z,24.93
2023-05-11T09:29:30.483Z,24.93
2023-05-11T09:30:26.469Z,24.90
2023-05-11T09:31:25.442Z,24.93
2023-05-11T09:32:25.497Z,24.95
2023-05-11T09:33:25.373Z,24.97
2023-05-11T09:34:25.440Z,24.97
2023-05-11T09:35:25.362Z,24.98
2023-05-11T09:36:25.377Z,25.01
2023-05-11T09:37:25.384Z,25.05
2023-05-11T09:38:25.371Z,25.07
2023-05-11T09:39:35.419Z,25.10
2023-05-11T09:40:28.265Z,25.10
2023-05-11T09:41:26.409Z,25.09
2023-05-11T09:42:25.324Z,25.10
2023-05-11T09:43:25.341Z,25.10
2023-05-11T09:44:25.334Z,25.10
2023-05-11T09:45:25.341Z,25.09
2023-05-11T09:46:25.383Z,25.09
2023-05-11T09:47:25.309Z,25.09
2023-05-11T09:48:25.309Z,25.09
2023-05-11T09:49:25.290Z,25.11
2023-05-11T09:50:26.811Z,25.17
2023-05-11T09:51:25.340Z,25.21
2023-05-11T09:52:25.334Z,25.28
2023-05-11T09:53:26.721Z,25.33
2023-05-11T09:54:25.255Z,25.40
2023-05-11T09:55:25.253Z,25.46
2023-05-11T09:56:25.225Z,25.51
2023-05-11T09:57:25.229Z,25.54
2023-05-11T09:58:25.252Z,25.58
2023-05-11T09:59:26.706Z,25.58
2023-05-11T10:00:25.282Z,25.61
2023-05-11T10:01:25.250Z,25.63
2023-05-11T10:02:25.393Z,25.65
2023-05-11T10:03:25.338Z,25.67
2023-05-11T10:04:25.302Z,25.69
2023-05-11T10:05:25.214Z,25.72
2023-05-11T10:06:25.166Z,25.73
2023-05-11T10:07:25.180Z,25.75
2023-05-11T10:08:25.175Z,25.79
2023-05-11T10:09:25.176Z,25.81
2023-05-11T10:10:25.169Z,25.85
2023-05-11T10:11:26.349Z,25.88
2023-05-11T10:12:25.143Z,25.91
2023-05-11T10:13:25.132Z,25.92
2023-05-11T10:14:25.201Z,25.95
2023-05-11T10:15:25.181Z,25.98
2023-05-11T10:16:25.178Z,26.00
2023-05-11T10:17:25.175Z,26.03
2023-05-11T10:18:25.149Z,26.06
2023-05-11T10:19:25.138Z,26.07
2023-05-11T10:20:25.219Z,26.08
2023-05-11T10:21:25.297Z,26.10
2023-05-11T10:22:25.395Z,26.11
2023-05-11T10:23:25.391Z,26.12
2023-05-11T10:24:25.455Z,26.14
2023-05-11T10:25:25.550Z,26.15
2023-05-11T10:26:25.579Z,26.17
2023-05-11T10:27:25.635Z,26.18
2023-05-11T10:28:25.671Z,26.20
2023-05-11T10:29:25.748Z,26.21
2023-05-11T10:30:25.810Z,26.22
2023-05-11T10:31:25.824Z,26.23
2023-05-11T10:32:25.953Z,26.24
2023-05-11T10:33:25.969Z,26.26
2023-05-11T10:34:26.058Z,26.27
2023-05-11T10:35:26.036Z,26.28
2023-05-11T10:36:26.165Z,26.29
2023-05-11T10:37:26.178Z,26.30
2023-05-11T10:38:26.204Z,26.30
2023-05-11T10:39:26.528Z,26.31
2023-05-11T10:40:26.276Z,26.31
2023-05-11T10:41:26.392Z,26.30
2023-05-11T10:42:26.424Z,26.34
2023-05-11T10:43:26.464Z,26.36
2023-05-11T10:44:26.509Z,26.39
2023-05-11T10:45:28.532Z,26.40
2023-05-11T10:46:28.166Z,26.42
2023-05-11T10:47:26.565Z,26.43
2023-05-11T10:48:26.625Z,26.43
2023-05-11T10:49:26.557Z,26.43
2023-05-11T10:50:27.080Z,26.45
2023-05-11T10:51:26.550Z,26.46
2023-05-11T10:52:28.776Z,26.47
2023-05-11T10:53:26.507Z,26.49
2023-05-11T10:54:26.518Z,26.52
2023-05-11T10:55:26.560Z,26.55
2023-05-11T10:56:26.523Z,26.57
2023-05-11T10:57:26.482Z,26.59
2023-05-11T10:58:26.497Z,26.61
2023-05-11T10:59:26.485Z,26.63
2023-05-11T11:00:26.591Z,26.63
2023-05-11T11:01:26.554Z,26.63
2023-05-11T11:02:26.501Z,26.64
2023-05-11T11:03:26.485Z,26.65
2023-05-11T11:04:28.125Z,26.63
2023-05-11T11:05:26.493Z,26.62
2023-05-11T11:06:26.435Z,26.63
2023-05-11T11:07:26.444Z,26.64
2023-05-11T11:08:26.423Z,26.64
2023-05-11T11:09:26.546Z,26.64
2023-05-11T11:10:26.421Z,26.66
2023-05-11T11:11:26.422Z,26.65
2023-05-11T11:12:26.394Z,26.65
2023-05-11T11:13:26.409Z,26.64
2023-05-11T11:14:26.367Z,26.63
2023-05-11T11:15:26.515Z,26.63
2023-05-11T11:16:26.441Z,26.63
2023-05-11T11:17:26.406Z,26.64
2023-05-11T11:18:26.428Z,26.64
2023-05-11T11:19:26.356Z,26.64
2023-05-11T11:20:26.344Z,26.67
2023-05-11T11:21:26.400Z,26.68
2023-05-11T11:22:26.371Z,26.66
2023-05-11T11:23:26.322Z,26.64
2023-05-11T11:24:26.310Z,26.64
2023-05-11T11:25:26.593Z,26.65
2023-05-11T11:26:26.341Z,26.65
2023-05-11T11:27:28.857Z,26.65
2023-05-11T11:28:26.299Z,26.62
2023-05-11T11:29:26.326Z,26.59
2023-05-11T11:30:26.570Z,26.56
2023-05-11T11:31:26.433Z,26.54
2023-05-11T11:32:26.326Z,26.50
2023-05-11T11:33:26.260Z,26.48
2023-05-11T11:34:26.308Z,26.45
2023-05-11T11:35:26.532Z,26.42
2023-05-11T11:36:26.255Z,26.39
2023-05-11T11:37:26.273Z,26.36
2023-05-11T11:38:27.908Z,26.34
2023-05-11T11:39:26.213Z,26.32
2023-05-11T11:40:27.415Z,26.29
2023-05-11T11:41:26.199Z,26.26
2023-05-11T11:42:26.227Z,26.24
2023-05-11T11:43:26.256Z,26.22
2023-05-11T11:44:26.234Z,26.21
2023-05-11T11:45:26.237Z,26.19
2023-05-11T11:46:26.205Z,26.18
2023-05-11T11:47:26.442Z,26.17
2023-05-11T11:48:26.202Z,26.15
2023-05-11T11:49:26.192Z,26.14
2023-05-11T11:50:26.165Z,26.13
2023-05-11T11:51:26.182Z,26.12
2023-05-11T11:52:26.162Z,26.11
2023-05-11T11:53:26.135Z,26.10
2023-05-11T11:54:26.138Z,26.09
2023-05-11T11:55:26.119Z,26.09
2023-05-11T11:56:26.153Z,26.08
2023-05-11T11:57:26.136Z,26.07
2023-05-11T11:58:26.117Z,26.06
2023-05-11T11:59:26.126Z,26.05
2023-05-11T12:00:26.087Z,26.05
2023-05-11T12:01:26.079Z,26.04
2023-05-11T12:02:26.175Z,26.04
2023-05-11T12:03:26.164Z,26.03
2023-05-11T12:04:26.244Z,26.02
2023-05-11T12:05:26.247Z,26.01
2023-05-11T12:06:26.853Z,26.00
2023-05-11T12:07:26.239Z,25.99
2023-05-11T12:08:26.310Z,25.99
2023-05-11T12:09:26.394Z,25.98
2023-05-11T12:10:26.427Z,25.97
2023-05-11T12:11:26.498Z,25.97
2023-05-11T12:12:26.559Z,25.97
2023-05-11T12:13:26.623Z,25.96
2023-05-11T12:14:26.702Z,25.96
2023-05-11T12:15:26.748Z,25.95
2023-05-11T12:16:26.878Z,25.95
2023-05-11T12:17:26.917Z,25.95
2023-05-11T12:18:26.921Z,25.94
2023-05-11T12:19:26.981Z,25.93
2023-05-11T12:20:27.042Z,25.94
2023-05-11T12:21:27.106Z,25.93
2023-05-11T12:22:27.196Z,25.92
2023-05-11T12:23:27.263Z,25.92
2023-05-11T12:24:27.303Z,25.92
2023-05-11T12:25:27.384Z,25.91
2023-05-11T12:26:27.421Z,25.91
2023-05-11T12:27:27.487Z,25.91
2023-05-11T12:28:27.564Z,25.90
2023-05-11T12:29:27.595Z,25.90
2023-05-11T12:30:27.660Z,25.90
2023-05-11T12:31:27.720Z,25.88
2023-05-11T12:32:27.796Z,25.88
2023-05-11T12:33:27.844Z,25.88
2023-05-11T12:34:27.883Z,25.88
2023-05-11T12:35:27.894Z,25.87
2023-05-11T12:36:27.940Z,25.86
2023-05-11T12:37:28.000Z,25.86
2023-05-11T12:38:28.005Z,25.85
2023-05-11T12:39:28.048Z,25.85
2023-05-11T12:40:28.103Z,25.84
2023-05-11T12:41:28.137Z,25.85
2023-05-11T12:42:28.211Z,25.85
2023-05-11T12:43:28.196Z,25.84
2023-05-11T12:44:28.197Z,25.84
2023-05-11T12:45:28.227Z,25.83
2023-05-11T12:46:28.302Z,25.83
2023-05-11T12:47:28.329Z,25.82
2023-05-11T12:48:28.320Z,25.82
2023-05-11T12:49:28.303Z,25.81
2023-05-11T12:50:28.341Z,25.81
2023-05-11T12:51:28.354Z,25.81
2023-05-11T12:52:28.423Z,25.80
2023-05-11T12:53:28.423Z,25.80
2023-05-11T12:54:28.487Z,25.79
2023-05-11T12:55:28.530Z,25.79